Braidwood, Australia
Current Conditions -  °F | °C
As of 6:30 AM on Saturday 29 Nov 2014 (Local Time) from YSCB Reporting Station
Clear Clear  
Wind Chill: 52°   Ceiling: Unl
Heat Index: 52°   Visibility: 6mi
Dew Point: 50°   Wind: 6mph
Humidity: 94%   Direction: 130°SE
Pressure: 30.12"   Gusts: NA
Location:  35.44°S, 149.8°E
Report Text: YSCB 281930Z AUTO 13005KT 9999 // NCD 11/10 Q1020
Loading
Personal Weather Stations






























Interactive Weather Map New forecast layout! Learn more

10-Day Weather Forecast

Advertisements
Track Severe Weather on mobile